sensor_id;sensor_type;location;lat;lon;timestamp;P1;durP1;ratioP1;P2;durP2;ratioP2
14665;SDS011;7420;53.574;10.040;2023-05-21T00:02:04;6.90;;;3.60;;
14665;SDS011;7420;53.574;10.040;2023-05-21T00:04:30;6.25;;;3.63;;
14665;SDS011;7420;53.574;10.040;2023-05-21T00:06:57;7.38;;;2.95;;
14665;SDS011;7420;53.574;10.040;2023-05-21T00:09:23;5.30;;;2.90;;
14665;SDS011;7420;53.574;10.040;2023-05-21T00:11:48;6.25;;;2.88;;
14665;SDS011;7420;53.574;10.040;2023-05-21T00:14:14;7.55;;;3.20;;
14665;SDS011;7420;53.574;10.040;2023-05-21T00:16:39;6.07;;;3.28;;
14665;SDS011;7420;53.574;10.040;2023-05-21T00:19:05;5.22;;;2.88;;
14665;SDS011;7420;53.574;10.040;2023-05-21T00:21:30;8.80;;;3.13;;
14665;SDS011;7420;53.574;10.040;2023-05-21T00:23:56;5.63;;;3.22;;
14665;SDS011;7420;53.574;10.040;2023-05-21T00:26:21;8.13;;;3.67;;
14665;SDS011;7420;53.574;10.040;2023-05-21T00:28:48;9.48;;;4.28;;
14665;SDS011;7420;53.574;10.040;2023-05-21T00:31:14;8.80;;;3.65;;
14665;SDS011;7420;53.574;10.040;2023-05-21T00:33:40;9.15;;;3.05;;
14665;SDS011;7420;53.574;10.040;2023-05-21T00:36:05;6.32;;;2.97;;
14665;SDS011;7420;53.574;10.040;2023-05-21T00:38:31;6.82;;;3.08;;
14665;SDS011;7420;53.574;10.040;2023-05-21T00:40:59;8.20;;;3.00;;
14665;SDS011;7420;53.574;10.040;2023-05-21T00:43:26;6.07;;;3.15;;
14665;SDS011;7420;53.574;10.040;2023-05-21T00:45:51;3.85;;;2.78;;
14665;SDS011;7420;53.574;10.040;2023-05-21T00:48:17;6.88;;;3.50;;
14665;SDS011;7420;53.574;10.040;2023-05-21T00:50:44;5.35;;;2.92;;
14665;SDS011;7420;53.574;10.040;2023-05-21T00:53:10;10.30;;;3.78;;
14665;SDS011;7420;53.574;10.040;2023-05-21T00:55:36;8.13;;;3.88;;
14665;SDS011;7420;53.574;10.040;2023-05-21T00:58:02;7.55;;;2.97;;
14665;SDS011;7420;53.574;10.040;2023-05-21T01:00:29;5.90;;;3.28;;
14665;SDS011;7420;53.574;10.040;2023-05-21T01:02:59;9.30;;;3.65;;
14665;SDS011;7420;53.574;10.040;2023-05-21T01:05:25;7.03;;;3.28;;
14665;SDS011;7420;53.574;10.040;2023-05-21T01:07:52;6.15;;;3.60;;
14665;SDS011;7420;53.574;10.040;2023-05-21T01:10:17;5.05;;;2.58;;
14665;SDS011;7420;53.574;10.040;2023-05-21T01:12:43;8.20;;;3.40;;
14665;SDS011;7420;53.574;10.040;2023-05-21T01:15:09;5.22;;;2.88;;
14665;SDS011;7420;53.574;10.040;2023-05-21T01:17:36;3.47;;;2.95;;
14665;SDS011;7420;53.574;10.040;2023-05-21T01:20:03;7.60;;;2.97;;
14665;SDS011;7420;53.574;10.040;2023-05-21T01:22:34;6.97;;;2.95;;
14665;SDS011;7420;53.574;10.040;2023-05-21T01:24:59;7.57;;;3.13;;
14665;SDS011;7420;53.574;10.040;2023-05-21T01:27:26;6.35;;;3.05;;
14665;SDS011;7420;53.574;10.040;2023-05-21T01:29:52;4.57;;;3.00;;
14665;SDS011;7420;53.574;10.040;2023-05-21T01:32:22;7.43;;;2.50;;
14665;SDS011;7420;53.574;10.040;2023-05-21T01:35:07;6.40;;;2.90;;
14665;SDS011;7420;53.574;10.040;2023-05-21T01:37:36;7.40;;;3.05;;
14665;SDS011;7420;53.574;10.040;2023-05-21T01:42:47;6.07;;;2.80;;
14665;SDS011;7420;53.574;10.040;2023-05-21T01:45:16;7.47;;;3.40;;
14665;SDS011;7420;53.574;10.040;2023-05-21T01:47:43;8.65;;;3.85;;
14665;SDS011;7420;53.574;10.040;2023-05-21T01:50:12;6.30;;;3.65;;
14665;SDS011;7420;53.574;10.040;2023-05-21T01:52:38;7.78;;;3.10;;
14665;SDS011;7420;53.574;10.040;2023-05-21T01:55:03;5.43;;;2.85;;
14665;SDS011;7420;53.574;10.040;2023-05-21T01:57:30;5.40;;;3.10;;
14665;SDS011;7420;53.574;10.040;2023-05-21T01:59:55;8.00;;;3.50;;
14665;SDS011;7420;53.574;10.040;2023-05-21T02:02:21;8.40;;;3.22;;
14665;SDS011;7420;53.574;10.040;2023-05-21T02:04:47;8.48;;;2.95;;
14665;SDS011;7420;53.574;10.040;2023-05-21T02:07:14;5.43;;;2.90;;
14665;SDS011;7420;53.574;10.040;2023-05-21T02:09:39;7.40;;;2.95;;
14665;SDS011;7420;53.574;10.040;2023-05-21T02:12:05;6.97;;;2.90;;
14665;SDS011;7420;53.574;10.040;2023-05-21T02:14:31;5.78;;;2.63;;
14665;SDS011;7420;53.574;10.040;2023-05-21T02:16:58;8.00;;;3.00;;
14665;SDS011;7420;53.574;10.040;2023-05-21T02:19:24;8.25;;;3.20;;
14665;SDS011;7420;53.574;10.040;2023-05-21T02:21:50;7.22;;;3.17;;
14665;SDS011;7420;53.574;10.040;2023-05-21T02:24:15;3.67;;;2.40;;
14665;SDS011;7420;53.574;10.040;2023-05-21T02:26:40;4.40;;;2.72;;
14665;SDS011;7420;53.574;10.040;2023-05-21T02:29:06;5.22;;;2.60;;
14665;SDS011;7420;53.574;10.040;2023-05-21T02:31:31;5.22;;;3.08;;
14665;SDS011;7420;53.574;10.040;2023-05-21T02:33:56;6.53;;;2.90;;
14665;SDS011;7420;53.574;10.040;2023-05-21T02:36:22;8.30;;;3.08;;
14665;SDS011;7420;53.574;10.040;2023-05-21T02:38:49;6.72;;;3.25;;
14665;SDS011;7420;53.574;10.040;2023-05-21T02:41:14;8.05;;;2.88;;
14665;SDS011;7420;53.574;10.040;2023-05-21T02:43:40;9.55;;;3.20;;
14665;SDS011;7420;53.574;10.040;2023-05-21T02:46:05;7.70;;;3.33;;
14665;SDS011;7420;53.574;10.040;2023-05-21T02:48:31;4.95;;;3.08;;
14665;SDS011;7420;53.574;10.040;2023-05-21T02:50:56;5.50;;;3.60;;
14665;SDS011;7420;53.574;10.040;2023-05-21T02:53:22;7.10;;;2.97;;
14665;SDS011;7420;53.574;10.040;2023-05-21T02:55:47;4.55;;;2.88;;
14665;SDS011;7420;53.574;10.040;2023-05-21T02:58:13;6.13;;;3.40;;
14665;SDS011;7420;53.574;10.040;2023-05-21T03:00:39;5.28;;;3.10;;
14665;SDS011;7420;53.574;10.040;2023-05-21T03:03:04;6.45;;;3.47;;
14665;SDS011;7420;53.574;10.040;2023-05-21T03:05:29;9.95;;;3.92;;
14665;SDS011;7420;53.574;10.040;2023-05-21T03:07:55;8.93;;;3.80;;
14665;SDS011;7420;53.574;10.040;2023-05-21T03:10:20;6.85;;;3.50;;
14665;SDS011;7420;53.574;10.040;2023-05-21T03:12:46;7.82;;;3.42;;
14665;SDS011;7420;53.574;10.040;2023-05-21T03:15:11;6.38;;;3.35;;
14665;SDS011;7420;53.574;10.040;2023-05-21T03:17:38;6.80;;;3.00;;
14665;SDS011;7420;53.574;10.040;2023-05-21T03:20:06;8.00;;;3.60;;
14665;SDS011;7420;53.574;10.040;2023-05-21T03:22:33;7.05;;;3.55;;
14665;SDS011;7420;53.574;10.040;2023-05-21T03:24:58;6.22;;;3.83;;
14665;SDS011;7420;53.574;10.040;2023-05-21T03:27:25;6.32;;;3.67;;
14665;SDS011;7420;53.574;10.040;2023-05-21T03:29:51;9.20;;;4.15;;
14665;SDS011;7420;53.574;10.040;2023-05-21T03:32:19;9.25;;;3.50;;
14665;SDS011;7420;53.574;10.040;2023-05-21T03:34:45;5.90;;;4.00;;
14665;SDS011;7420;53.574;10.040;2023-05-21T03:37:10;7.35;;;4.15;;
14665;SDS011;7420;53.574;10.040;2023-05-21T03:39:35;9.23;;;3.72;;
14665;SDS011;7420;53.574;10.040;2023-05-21T03:42:01;5.45;;;3.65;;
14665;SDS011;7420;53.574;10.040;2023-05-21T03:44:26;7.57;;;3.60;;
14665;SDS011;7420;53.574;10.040;2023-05-21T03:46:52;9.35;;;4.05;;
14665;SDS011;7420;53.574;10.040;2023-05-21T03:49:18;11.38;;;3.67;;
14665;SDS011;7420;53.574;10.040;2023-05-21T03:51:44;8.20;;;3.70;;
14665;SDS011;7420;53.574;10.040;2023-05-21T03:54:09;6.90;;;3.95;;
14665;SDS011;7420;53.574;10.040;2023-05-21T03:56:35;6.07;;;3.13;;
14665;SDS011;7420;53.574;10.040;2023-05-21T03:59:00;5.25;;;3.70;;
14665;SDS011;7420;53.574;10.040;2023-05-21T04:01:25;7.18;;;4.22;;
14665;SDS011;7420;53.574;10.040;2023-05-21T04:03:53;5.30;;;3.53;;
14665;SDS011;7420;53.574;10.040;2023-05-21T04:06:18;8.25;;;4.03;;
14665;SDS011;7420;53.574;10.040;2023-05-21T04:08:43;7.05;;;4.05;;
14665;SDS011;7420;53.574;10.040;2023-05-21T04:11:09;7.63;;;3.50;;
14665;SDS011;7420;53.574;10.040;2023-05-21T04:13:34;8.85;;;3.97;;
14665;SDS011;7420;53.574;10.040;2023-05-21T04:16:00;8.07;;;3.70;;
14665;SDS011;7420;53.574;10.040;2023-05-21T04:18:25;10.63;;;4.45;;
14665;SDS011;7420;53.574;10.040;2023-05-21T04:20:51;8.60;;;4.30;;
14665;SDS011;7420;53.574;10.040;2023-05-21T04:23:16;7.80;;;4.57;;
14665;SDS011;7420;53.574;10.040;2023-05-21T04:25:41;9.63;;;3.92;;
14665;SDS011;7420;53.574;10.040;2023-05-21T04:28:07;8.20;;;4.28;;
14665;SDS011;7420;53.574;10.040;2023-05-21T04:30:32;8.38;;;4.38;;
14665;SDS011;7420;53.574;10.040;2023-05-21T04:33:00;7.38;;;4.07;;
14665;SDS011;7420;53.574;10.040;2023-05-21T04:35:26;8.18;;;4.10;;
14665;SDS011;7420;53.574;10.040;2023-05-21T04:37:51;9.02;;;4.57;;
14665;SDS011;7420;53.574;10.040;2023-05-21T04:40:18;7.07;;;4.60;;
14665;SDS011;7420;53.574;10.040;2023-05-21T04:42:48;9.98;;;4.35;;
14665;SDS011;7420;53.574;10.040;2023-05-21T04:45:14;8.70;;;4.00;;
14665;SDS011;7420;53.574;10.040;2023-05-21T04:47:41;5.85;;;3.80;;
14665;SDS011;7420;53.574;10.040;2023-05-21T04:50:07;9.68;;;4.45;;
14665;SDS011;7420;53.574;10.040;2023-05-21T04:52:35;8.82;;;4.30;;
14665;SDS011;7420;53.574;10.040;2023-05-21T04:55:01;8.55;;;4.07;;
14665;SDS011;7420;53.574;10.040;2023-05-21T04:57:26;6.72;;;4.20;;
14665;SDS011;7420;53.574;10.040;2023-05-21T04:59:53;9.05;;;4.15;;
14665;SDS011;7420;53.574;10.040;2023-05-21T05:02:18;7.55;;;4.35;;
14665;SDS011;7420;53.574;10.040;2023-05-21T05:04:44;5.88;;;3.70;;
14665;SDS011;7420;53.574;10.040;2023-05-21T05:07:10;7.45;;;4.28;;
14665;SDS011;7420;53.574;10.040;2023-05-21T05:09:36;10.43;;;4.60;;
14665;SDS011;7420;53.574;10.040;2023-05-21T05:12:01;6.28;;;4.05;;
14665;SDS011;7420;53.574;10.040;2023-05-21T05:14:26;8.43;;;4.85;;
14665;SDS011;7420;53.574;10.040;2023-05-21T05:16:52;11.68;;;5.30;;
14665;SDS011;7420;53.574;10.040;2023-05-21T05:19:18;9.75;;;4.88;;
14665;SDS011;7420;53.574;10.040;2023-05-21T05:21:44;7.35;;;4.70;;
14665;SDS011;7420;53.574;10.040;2023-05-21T05:24:09;7.75;;;4.55;;
14665;SDS011;7420;53.574;10.040;2023-05-21T05:26:34;6.97;;;4.90;;
14665;SDS011;7420;53.574;10.040;2023-05-21T05:29:00;7.88;;;4.88;;
14665;SDS011;7420;53.574;10.040;2023-05-21T05:31:25;15.82;;;8.70;;
14665;SDS011;7420;53.574;10.040;2023-05-21T05:33:51;14.57;;;5.95;;
14665;SDS011;7420;53.574;10.040;2023-05-21T05:36:16;6.88;;;4.82;;
14665;SDS011;7420;53.574;10.040;2023-05-21T05:38:41;9.40;;;4.90;;
14665;SDS011;7420;53.574;10.040;2023-05-21T05:41:07;10.95;;;4.93;;
14665;SDS011;7420;53.574;10.040;2023-05-21T05:43:32;8.63;;;5.57;;
14665;SDS011;7420;53.574;10.040;2023-05-21T05:45:57;10.95;;;5.82;;
14665;SDS011;7420;53.574;10.040;2023-05-21T05:48:23;10.98;;;6.28;;
14665;SDS011;7420;53.574;10.040;2023-05-21T05:50:48;13.82;;;6.68;;
14665;SDS011;7420;53.574;10.040;2023-05-21T05:53:13;15.13;;;6.97;;
14665;SDS011;7420;53.574;10.040;2023-05-21T05:55:39;16.10;;;6.20;;
14665;SDS011;7420;53.574;10.040;2023-05-21T05:58:05;11.35;;;7.03;;
14665;SDS011;7420;53.574;10.040;2023-05-21T06:00:30;14.32;;;5.65;;
14665;SDS011;7420;53.574;10.040;2023-05-21T06:02:56;9.85;;;5.32;;
14665;SDS011;7420;53.574;10.040;2023-05-21T06:05:21;8.18;;;4.60;;
14665;SDS011;7420;53.574;10.040;2023-05-21T06:07:46;10.38;;;5.35;;
14665;SDS011;7420;53.574;10.040;2023-05-21T06:10:12;10.55;;;5.05;;
14665;SDS011;7420;53.574;10.040;2023-05-21T06:12:37;8.80;;;5.13;;
14665;SDS011;7420;53.574;10.040;2023-05-21T06:15:03;11.63;;;5.05;;
14665;SDS011;7420;53.574;10.040;2023-05-21T06:17:30;9.50;;;5.95;;
14665;SDS011;7420;53.574;10.040;2023-05-21T06:19:55;6.93;;;5.43;;
14665;SDS011;7420;53.574;10.040;2023-05-21T06:22:21;14.50;;;9.43;;
14665;SDS011;7420;53.574;10.040;2023-05-21T06:24:46;11.25;;;6.07;;
14665;SDS011;7420;53.574;10.040;2023-05-21T06:27:11;8.85;;;5.80;;
14665;SDS011;7420;53.574;10.040;2023-05-21T06:29:37;9.35;;;5.40;;
14665;SDS011;7420;53.574;10.040;2023-05-21T06:32:04;12.90;;;5.53;;
14665;SDS011;7420;53.574;10.040;2023-05-21T06:34:30;10.20;;;6.95;;
14665;SDS011;7420;53.574;10.040;2023-05-21T06:36:56;9.65;;;5.75;;
14665;SDS011;7420;53.574;10.040;2023-05-21T06:39:21;11.60;;;6.05;;
14665;SDS011;7420;53.574;10.040;2023-05-21T06:41:48;9.95;;;6.53;;
14665;SDS011;7420;53.574;10.040;2023-05-21T06:44:13;9.80;;;6.18;;
14665;SDS011;7420;53.574;10.040;2023-05-21T06:46:39;11.07;;;6.18;;
14665;SDS011;7420;53.574;10.040;2023-05-21T06:49:05;11.13;;;7.07;;
14665;SDS011;7420;53.574;10.040;2023-05-21T06:51:31;10.88;;;6.20;;
14665;SDS011;7420;53.574;10.040;2023-05-21T06:53:56;20.00;;;13.80;;
14665;SDS011;7420;53.574;10.040;2023-05-21T06:56:21;20.25;;;12.23;;
14665;SDS011;7420;53.574;10.040;2023-05-21T06:58:47;13.20;;;8.10;;
14665;SDS011;7420;53.574;10.040;2023-05-21T07:01:12;31.08;;;17.00;;
14665;SDS011;7420;53.574;10.040;2023-05-21T07:03:37;14.63;;;9.43;;
14665;SDS011;7420;53.574;10.040;2023-05-21T07:06:03;14.75;;;9.68;;
14665;SDS011;7420;53.574;10.040;2023-05-21T07:08:28;9.60;;;6.72;;
14665;SDS011;7420;53.574;10.040;2023-05-21T07:10:53;11.43;;;8.13;;
14665;SDS011;7420;53.574;10.040;2023-05-21T07:13:20;12.07;;;8.15;;
14665;SDS011;7420;53.574;10.040;2023-05-21T07:15:45;11.40;;;7.20;;
14665;SDS011;7420;53.574;10.040;2023-05-21T07:18:11;10.57;;;8.20;;
14665;SDS011;7420;53.574;10.040;2023-05-21T07:20:37;9.82;;;6.70;;
14665;SDS011;7420;53.574;10.040;2023-05-21T07:23:02;11.35;;;7.55;;
14665;SDS011;7420;53.574;10.040;2023-05-21T07:25:27;10.82;;;7.55;;
14665;SDS011;7420;53.574;10.040;2023-05-21T07:27:53;12.18;;;8.30;;
14665;SDS011;7420;53.574;10.040;2023-05-21T07:30:18;13.27;;;10.80;;
14665;SDS011;7420;53.574;10.040;2023-05-21T07:32:50;13.20;;;8.75;;
14665;SDS011;7420;53.574;10.040;2023-05-21T07:35:15;12.38;;;9.15;;
14665;SDS011;7420;53.574;10.040;2023-05-21T07:37:40;12.82;;;8.63;;
14665;SDS011;7420;53.574;10.040;2023-05-21T07:40:06;12.85;;;8.30;;
14665;SDS011;7420;53.574;10.040;2023-05-21T07:42:32;13.63;;;8.25;;
14665;SDS011;7420;53.574;10.040;2023-05-21T07:44:58;11.88;;;8.00;;
14665;SDS011;7420;53.574;10.040;2023-05-21T07:47:23;15.35;;;9.30;;
14665;SDS011;7420;53.574;10.040;2023-05-21T07:49:49;11.00;;;8.77;;
14665;SDS011;7420;53.574;10.040;2023-05-21T07:52:14;12.85;;;8.52;;
14665;SDS011;7420;53.574;10.040;2023-05-21T07:54:40;11.90;;;8.65;;
14665;SDS011;7420;53.574;10.040;2023-05-21T07:57:05;14.85;;;8.60;;
14665;SDS011;7420;53.574;10.040;2023-05-21T07:59:30;12.05;;;9.30;;
14665;SDS011;7420;53.574;10.040;2023-05-21T08:01:57;14.60;;;9.68;;
14665;SDS011;7420;53.574;10.040;2023-05-21T08:04:23;12.48;;;9.63;;
14665;SDS011;7420;53.574;10.040;2023-05-21T08:06:48;16.48;;;9.88;;
14665;SDS011;7420;53.574;10.040;2023-05-21T08:09:13;17.13;;;12.48;;
14665;SDS011;7420;53.574;10.040;2023-05-21T08:11:39;12.60;;;9.18;;
14665;SDS011;7420;53.574;10.040;2023-05-21T08:14:04;13.27;;;9.68;;
14665;SDS011;7420;53.574;10.040;2023-05-21T08:16:30;10.93;;;9.45;;
14665;SDS011;7420;53.574;10.040;2023-05-21T08:18:55;13.82;;;9.10;;
14665;SDS011;7420;53.574;10.040;2023-05-21T08:21:21;15.38;;;10.65;;
14665;SDS011;7420;53.574;10.040;2023-05-21T08:23:46;14.52;;;9.80;;
14665;SDS011;7420;53.574;10.040;2023-05-21T08:26:12;12.85;;;9.70;;
14665;SDS011;7420;53.574;10.040;2023-05-21T08:28:40;11.75;;;10.07;;
14665;SDS011;7420;53.574;10.040;2023-05-21T08:31:06;14.63;;;10.15;;
14665;SDS011;7420;53.574;10.040;2023-05-21T08:33:33;12.88;;;10.00;;
14665;SDS011;7420;53.574;10.040;2023-05-21T08:36:01;13.02;;;9.52;;
14665;SDS011;7420;53.574;10.040;2023-05-21T08:38:27;12.40;;;10.38;;
14665;SDS011;7420;53.574;10.040;2023-05-21T08:40:52;13.57;;;9.60;;
14665;SDS011;7420;53.574;10.040;2023-05-21T08:43:19;15.00;;;10.25;;
14665;SDS011;7420;53.574;10.040;2023-05-21T08:45:46;13.38;;;9.77;;
14665;SDS011;7420;53.574;10.040;2023-05-21T08:50:46;14.02;;;10.57;;
14665;SDS011;7420;53.574;10.040;2023-05-21T08:53:11;14.95;;;11.57;;
14665;SDS011;7420;53.574;10.040;2023-05-21T08:55:37;13.80;;;11.45;;
14665;SDS011;7420;53.574;10.040;2023-05-21T08:58:06;38.58;;;21.27;;
14665;SDS011;7420;53.574;10.040;2023-05-21T09:00:31;20.63;;;14.50;;
14665;SDS011;7420;53.574;10.040;2023-05-21T09:02:57;17.02;;;11.82;;
14665;SDS011;7420;53.574;10.040;2023-05-21T09:05:25;18.55;;;10.68;;
14665;SDS011;7420;53.574;10.040;2023-05-21T09:08:04;21.70;;;12.65;;
14665;SDS011;7420;53.574;10.040;2023-05-21T09:10:33;16.20;;;12.15;;
14665;SDS011;7420;53.574;10.040;2023-05-21T09:13:01;17.85;;;13.68;;
14665;SDS011;7420;53.574;10.040;2023-05-21T09:15:27;17.92;;;11.57;;
14665;SDS011;7420;53.574;10.040;2023-05-21T09:17:53;15.07;;;12.55;;
14665;SDS011;7420;53.574;10.040;2023-05-21T09:20:23;15.90;;;12.02;;
14665;SDS011;7420;53.574;10.040;2023-05-21T09:22:50;14.52;;;10.68;;
14665;SDS011;7420;53.574;10.040;2023-05-21T09:25:23;14.55;;;11.70;;
14665;SDS011;7420;53.574;10.040;2023-05-21T09:27:56;13.43;;;11.82;;
14665;SDS011;7420;53.574;10.040;2023-05-21T09:30:22;20.15;;;12.40;;
14665;SDS011;7420;53.574;10.040;2023-05-21T09:32:51;15.27;;;12.40;;
14665;SDS011;7420;53.574;10.040;2023-05-21T09:35:27;15.13;;;11.20;;
14665;SDS011;7420;53.574;10.040;2023-05-21T09:37:52;14.05;;;11.98;;
14665;SDS011;7420;53.574;10.040;2023-05-21T09:40:18;12.55;;;11.15;;
14665;SDS011;7420;53.574;10.040;2023-05-21T09:42:45;15.27;;;12.00;;
14665;SDS011;7420;53.574;10.040;2023-05-21T09:45:22;17.23;;;12.07;;
14665;SDS011;7420;53.574;10.040;2023-05-21T09:47:49;13.80;;;11.50;;
14665;SDS011;7420;53.574;10.040;2023-05-21T09:50:19;15.77;;;12.95;;
14665;SDS011;7420;53.574;10.040;2023-05-21T09:52:49;14.48;;;11.55;;
14665;SDS011;7420;53.574;10.040;2023-05-21T09:55:17;13.95;;;11.70;;
14665;SDS011;7420;53.574;10.040;2023-05-21T09:57:46;16.10;;;12.50;;
14665;SDS011;7420;53.574;10.040;2023-05-21T10:00:18;15.63;;;12.18;;
14665;SDS011;7420;53.574;10.040;2023-05-21T10:02:46;16.27;;;12.27;;
14665;SDS011;7420;53.574;10.040;2023-05-21T10:05:12;14.55;;;11.05;;
14665;SDS011;7420;53.574;10.040;2023-05-21T10:07:40;13.95;;;10.27;;
14665;SDS011;7420;53.574;10.040;2023-05-21T10:10:13;15.02;;;10.82;;
14665;SDS011;7420;53.574;10.040;2023-05-21T10:12:40;14.52;;;11.40;;
14665;SDS011;7420;53.574;10.040;2023-05-21T10:15:10;16.33;;;13.25;;
14665;SDS011;7420;53.574;10.040;2023-05-21T10:17:41;20.25;;;16.52;;
14665;SDS011;7420;53.574;10.040;2023-05-21T10:20:09;15.00;;;13.23;;
14665;SDS011;7420;53.574;10.040;2023-05-21T10:22:35;13.95;;;11.82;;
14665;SDS011;7420;53.574;10.040;2023-05-21T10:25:01;15.60;;;13.23;;
14665;SDS011;7420;53.574;10.040;2023-05-21T10:27:28;15.98;;;13.98;;
14665;SDS011;7420;53.574;10.040;2023-05-21T10:29:55;15.40;;;13.13;;
14665;SDS011;7420;53.574;10.040;2023-05-21T10:32:21;14.23;;;11.68;;
14665;SDS011;7420;53.574;10.040;2023-05-21T10:34:47;15.65;;;13.98;;
14665;SDS011;7420;53.574;10.040;2023-05-21T10:37:13;14.30;;;12.60;;
14665;SDS011;7420;53.574;10.040;2023-05-21T10:39:40;16.95;;;14.32;;
14665;SDS011;7420;53.574;10.040;2023-05-21T10:53:00;14.15;;;12.70;;
14665;SDS011;7420;53.574;10.040;2023-05-21T10:58:42;13.13;;;11.02;;
14665;SDS011;7420;53.574;10.040;2023-05-21T11:01:21;12.93;;;9.80;;
14665;SDS011;7420;53.574;10.040;2023-05-21T11:03:47;13.90;;;11.48;;
14665;SDS011;7420;53.574;10.040;2023-05-21T11:06:20;11.63;;;9.73;;
14665;SDS011;7420;53.574;10.040;2023-05-21T11:08:48;12.50;;;10.20;;
14665;SDS011;7420;53.574;10.040;2023-05-21T11:11:25;15.30;;;10.45;;
14665;SDS011;7420;53.574;10.040;2023-05-21T11:14:54;10.95;;;9.38;;
14665;SDS011;7420;53.574;10.040;2023-05-21T11:17:12;10.73;;;9.52;;
14665;SDS011;7420;53.574;10.040;2023-05-21T11:19:43;11.18;;;9.40;;
14665;SDS011;7420;53.574;10.040;2023-05-21T11:24:50;14.07;;;9.70;;
14665;SDS011;7420;53.574;10.040;2023-05-21T11:27:35;14.50;;;10.55;;
14665;SDS011;7420;53.574;10.040;2023-05-21T11:30:05;11.43;;;9.98;;
14665;SDS011;7420;53.574;10.040;2023-05-21T11:32:39;13.88;;;9.95;;
14665;SDS011;7420;53.574;10.040;2023-05-21T11:35:26;11.10;;;8.30;;
14665;SDS011;7420;53.574;10.040;2023-05-21T11:37:54;13.38;;;9.55;;
14665;SDS011;7420;53.574;10.040;2023-05-21T11:40:23;13.95;;;10.10;;
14665;SDS011;7420;53.574;10.040;2023-05-21T11:42:53;11.32;;;8.98;;
14665;SDS011;7420;53.574;10.040;2023-05-21T11:45:20;9.45;;;8.50;;
14665;SDS011;7420;53.574;10.040;2023-05-21T11:47:48;12.35;;;10.02;;
14665;SDS011;7420;53.574;10.040;2023-05-21T11:50:14;12.20;;;9.52;;
14665;SDS011;7420;53.574;10.040;2023-05-21T11:52:41;12.45;;;9.60;;
14665;SDS011;7420;53.574;10.040;2023-05-21T11:55:07;13.27;;;9.32;;
14665;SDS011;7420;53.574;10.040;2023-05-21T11:57:33;11.27;;;9.27;;
14665;SDS011;7420;53.574;10.040;2023-05-21T11:59:59;13.70;;;9.30;;
14665;SDS011;7420;53.574;10.040;2023-05-21T12:02:26;14.10;;;8.73;;
14665;SDS011;7420;53.574;10.040;2023-05-21T12:04:56;10.60;;;9.25;;
14665;SDS011;7420;53.574;10.040;2023-05-21T12:07:25;12.82;;;9.02;;
14665;SDS011;7420;53.574;10.040;2023-05-21T12:09:54;12.75;;;9.25;;
14665;SDS011;7420;53.574;10.040;2023-05-21T12:12:20;10.23;;;9.00;;
14665;SDS011;7420;53.574;10.040;2023-05-21T12:14:48;9.32;;;7.80;;
14665;SDS011;7420;53.574;10.040;2023-05-21T12:17:15;11.73;;;10.10;;
14665;SDS011;7420;53.574;10.040;2023-05-21T12:19:41;14.18;;;10.95;;
14665;SDS011;7420;53.574;10.040;2023-05-21T12:22:07;11.15;;;9.52;;
14665;SDS011;7420;53.574;10.040;2023-05-21T12:24:33;11.48;;;9.63;;
14665;SDS011;7420;53.574;10.040;2023-05-21T12:27:00;13.75;;;9.65;;
14665;SDS011;7420;53.574;10.040;2023-05-21T12:29:29;9.82;;;8.50;;
14665;SDS011;7420;53.574;10.040;2023-05-21T12:31:59;12.40;;;9.38;;
14665;SDS011;7420;53.574;10.040;2023-05-21T12:34:45;12.25;;;9.65;;
14665;SDS011;7420;53.574;10.040;2023-05-21T12:37:15;11.18;;;9.93;;
14665;SDS011;7420;53.574;10.040;2023-05-21T12:39:48;11.38;;;9.30;;
14665;SDS011;7420;53.574;10.040;2023-05-21T12:42:15;12.00;;;9.70;;
14665;SDS011;7420;53.574;10.040;2023-05-21T12:44:45;13.45;;;10.40;;
14665;SDS011;7420;53.574;10.040;2023-05-21T12:47:11;12.48;;;9.35;;
14665;SDS011;7420;53.574;10.040;2023-05-21T12:49:44;10.98;;;9.82;;
14665;SDS011;7420;53.574;10.040;2023-05-21T12:52:12;11.52;;;10.32;;
14665;SDS011;7420;53.574;10.040;2023-05-21T12:54:39;11.57;;;9.38;;
14665;SDS011;7420;53.574;10.040;2023-05-21T12:59:45;12.38;;;10.00;;
14665;SDS011;7420;53.574;10.040;2023-05-21T13:02:20;13.35;;;9.88;;
14665;SDS011;7420;53.574;10.040;2023-05-21T13:05:08;13.02;;;10.88;;
14665;SDS011;7420;53.574;10.040;2023-05-21T13:07:38;12.45;;;10.00;;
14665;SDS011;7420;53.574;10.040;2023-05-21T13:10:04;13.30;;;10.25;;
14665;SDS011;7420;53.574;10.040;2023-05-21T13:12:31;11.30;;;10.02;;
14665;SDS011;7420;53.574;10.040;2023-05-21T13:14:58;11.90;;;10.27;;
14665;SDS011;7420;53.574;10.040;2023-05-21T13:17:25;12.45;;;10.65;;
14665;SDS011;7420;53.574;10.040;2023-05-21T13:22:32;10.50;;;8.98;;
14665;SDS011;7420;53.574;10.040;2023-05-21T13:24:59;14.07;;;10.70;;
14665;SDS011;7420;53.574;10.040;2023-05-21T13:27:28;10.90;;;9.70;;
14665;SDS011;7420;53.574;10.040;2023-05-21T13:29:53;11.13;;;9.57;;
14665;SDS011;7420;53.574;10.040;2023-05-21T13:32:19;11.40;;;9.73;;
14665;SDS011;7420;53.574;10.040;2023-05-21T13:34:44;11.27;;;9.73;;
14665;SDS011;7420;53.574;10.040;2023-05-21T13:37:10;10.63;;;9.45;;
14665;SDS011;7420;53.574;10.040;2023-05-21T13:39:35;11.23;;;10.05;;
14665;SDS011;7420;53.574;10.040;2023-05-21T13:42:01;11.20;;;9.65;;
14665;SDS011;7420;53.574;10.040;2023-05-21T13:44:26;14.20;;;9.73;;
14665;SDS011;7420;53.574;10.040;2023-05-21T13:46:52;13.38;;;9.75;;
14665;SDS011;7420;53.574;10.040;2023-05-21T13:49:17;12.90;;;10.38;;
14665;SDS011;7420;53.574;10.040;2023-05-21T13:51:42;10.43;;;8.90;;
14665;SDS011;7420;53.574;10.040;2023-05-21T13:54:08;11.88;;;9.20;;
14665;SDS011;7420;53.574;10.040;2023-05-21T13:56:33;13.88;;;10.13;;
14665;SDS011;7420;53.574;10.040;2023-05-21T13:58:59;10.32;;;8.82;;
14665;SDS011;7420;53.574;10.040;2023-05-21T14:01:25;10.60;;;8.52;;
14665;SDS011;7420;53.574;10.040;2023-05-21T14:03:50;11.18;;;9.90;;
14665;SDS011;7420;53.574;10.040;2023-05-21T14:06:16;13.55;;;9.50;;
14665;SDS011;7420;53.574;10.040;2023-05-21T14:08:41;13.30;;;10.00;;
14665;SDS011;7420;53.574;10.040;2023-05-21T14:11:06;11.80;;;9.65;;
14665;SDS011;7420;53.574;10.040;2023-05-21T14:13:32;11.68;;;9.82;;
14665;SDS011;7420;53.574;10.040;2023-05-21T14:15:57;14.52;;;9.73;;
14665;SDS011;7420;53.574;10.040;2023-05-21T14:18:22;11.75;;;9.57;;
14665;SDS011;7420;53.574;10.040;2023-05-21T14:20:48;15.30;;;9.07;;
14665;SDS011;7420;53.574;10.040;2023-05-21T14:23:13;11.35;;;8.85;;
14665;SDS011;7420;53.574;10.040;2023-05-21T14:25:39;11.80;;;9.75;;
14665;SDS011;7420;53.574;10.040;2023-05-21T14:28:05;10.77;;;8.85;;
14665;SDS011;7420;53.574;10.040;2023-05-21T14:30:31;9.80;;;8.80;;
14665;SDS011;7420;53.574;10.040;2023-05-21T14:32:56;13.70;;;8.85;;
14665;SDS011;7420;53.574;10.040;2023-05-21T14:35:21;11.23;;;8.48;;
14665;SDS011;7420;53.574;10.040;2023-05-21T14:37:47;9.95;;;8.43;;
14665;SDS011;7420;53.574;10.040;2023-05-21T14:40:12;10.55;;;7.82;;
14665;SDS011;7420;53.574;10.040;2023-05-21T14:42:38;9.63;;;8.18;;
14665;SDS011;7420;53.574;10.040;2023-05-21T14:45:05;12.10;;;9.55;;
14665;SDS011;7420;53.574;10.040;2023-05-21T14:47:30;10.57;;;8.20;;
14665;SDS011;7420;53.574;10.040;2023-05-21T14:49:56;12.10;;;9.13;;
14665;SDS011;7420;53.574;10.040;2023-05-21T14:52:21;11.50;;;7.95;;
14665;SDS011;7420;53.574;10.040;2023-05-21T14:54:47;10.88;;;8.63;;
14665;SDS011;7420;53.574;10.040;2023-05-21T14:57:12;14.70;;;8.75;;
14665;SDS011;7420;53.574;10.040;2023-05-21T14:59:37;10.40;;;8.00;;
14665;SDS011;7420;53.574;10.040;2023-05-21T15:02:03;10.40;;;7.95;;
14665;SDS011;7420;53.574;10.040;2023-05-21T15:04:28;8.63;;;7.72;;